createdAt,value
2023-02-07T00:00:17.910Z,18.9
2023-02-07T00:01:25.262Z,19.5
2023-02-07T00:02:37.807Z,19.1
2023-02-07T00:03:45.497Z,18.6
2023-02-07T00:04:55.625Z,19.4
2023-02-07T00:06:08.495Z,19.4
2023-02-07T00:07:18.273Z,19.6
2023-02-07T00:08:28.742Z,19.1
2023-02-07T00:09:35.105Z,19.3
2023-02-07T00:10:47.645Z,18.9
2023-02-07T00:11:55.353Z,19.4
2023-02-07T00:13:08.227Z,19.2
2023-02-07T00:14:18.347Z,19.2
2023-02-07T00:15:25.703Z,19.5
2023-02-07T00:17:48.713Z,18.7
2023-02-07T00:20:08.942Z,19.1
2023-02-07T00:21:19.065Z,18.6
2023-02-07T00:22:29.186Z,19.1
2023-02-07T00:24:49.425Z,19.1
2023-02-07T00:25:55.809Z,19.3
2023-02-07T00:27:07.711Z,18.8
2023-02-07T00:28:17.836Z,19.1
2023-02-07T00:29:27.948Z,19.1
2023-02-07T00:30:38.070Z,19.3
2023-02-07T00:31:45.419Z,18.9
2023-02-07T00:32:55.546Z,18.5
2023-02-07T00:34:08.415Z,18.9
2023-02-07T00:35:18.543Z,19.3
2023-02-07T00:36:28.671Z,18.9
2023-02-07T00:37:38.773Z,18.8
2023-02-07T00:38:45.155Z,18.6
2023-02-07T00:39:54.308Z,19.1
2023-02-07T00:41:07.176Z,18.9
2023-02-07T00:42:16.940Z,18.9
2023-02-07T00:43:24.649Z,18.6
2023-02-07T00:44:37.192Z,19.3
2023-02-07T00:45:47.307Z,18.8
2023-02-07T00:46:55.005Z,19.3
2023-02-07T00:48:07.902Z,19.1
2023-02-07T00:49:15.242Z,18.9
2023-02-07T00:50:25.363Z,19.1
2023-02-07T00:51:37.899Z,18.6
2023-02-07T00:52:48.375Z,18.9
2023-02-07T00:53:55.735Z,19.3
2023-02-07T00:55:04.862Z,19.1
2023-02-07T00:56:17.746Z,18.6
2023-02-07T00:57:27.865Z,19
2023-02-07T00:59:45.337Z,18.8
2023-02-07T01:00:55.465Z,19.1
2023-02-07T01:02:08.341Z,18.7
2023-02-07T01:03:15.692Z,18.6
2023-02-07T01:04:25.823Z,19.1
2023-02-07T01:05:38.694Z,18.6
2023-02-07T01:06:48.817Z,18.6
2023-02-07T01:07:56.167Z,18.8
2023-02-07T01:09:09.055Z,18.8
2023-02-07T01:10:15.436Z,18.1
2023-02-07T01:11:25.549Z,19.1
2023-02-07T01:12:38.437Z,18.6
2023-02-07T01:13:45.778Z,18.6
2023-02-07T01:14:55.901Z,18.6
2023-02-07T01:16:08.788Z,19
2023-02-07T01:17:18.903Z,19.1
2023-02-07T01:18:28.677Z,18.1
2023-02-07T01:19:39.146Z,19.2
2023-02-07T01:20:49.267Z,18.5
2023-02-07T01:21:59.387Z,18.9
2023-02-07T01:23:06.734Z,18.6
2023-02-07T01:24:19.627Z,19.1
2023-02-07T01:25:28.758Z,19
2023-02-07T01:26:38.874Z,18.7
2023-02-07T01:27:48.994Z,18.5
2023-02-07T01:28:56.351Z,18.8
2023-02-07T01:30:06.468Z,19.1
2023-02-07T01:31:19.352Z,19.1
2023-02-07T01:32:29.475Z,18.5
2023-02-07T01:33:39.594Z,18.4
2023-02-07T01:34:49.717Z,18.9
2023-02-07T01:35:57.077Z,18.9
2023-02-07T01:37:07.186Z,18.5
2023-02-07T01:38:20.079Z,18.9
2023-02-07T01:39:27.424Z,19.1
2023-02-07T01:40:39.327Z,19
2023-02-07T01:41:49.447Z,18.6
2023-02-07T01:42:56.805Z,18.7
2023-02-07T01:44:09.677Z,18.3
2023-02-07T01:45:17.036Z,18.6
2023-02-07T01:46:27.155Z,19.1
2023-02-07T01:47:40.042Z,19.1
2023-02-07T01:48:50.162Z,19.2
2023-02-07T01:49:57.509Z,18.6
2023-02-07T01:51:10.392Z,18.6
2023-02-07T01:52:20.509Z,18.9
2023-02-07T01:53:27.876Z,18.6
2023-02-07T01:54:40.746Z,18.2
2023-02-07T01:55:49.881Z,18.7
2023-02-07T01:56:57.258Z,19.1
2023-02-07T01:58:07.358Z,18.4
2023-02-07T01:59:17.479Z,18.2
2023-02-07T02:00:30.369Z,19.2
2023-02-07T02:02:50.607Z,18.7
2023-02-07T02:03:57.966Z,18.6
2023-02-07T02:05:10.835Z,18.9
2023-02-07T02:06:20.604Z,19.1
2023-02-07T02:07:28.318Z,18.9
2023-02-07T02:09:51.327Z,18.7
2023-02-07T02:11:00.462Z,19.1
2023-02-07T02:12:10.567Z,18.7
2023-02-07T02:13:20.687Z,18.6
2023-02-07T02:14:30.814Z,18.7
2023-02-07T02:15:40.929Z,19.1
2023-02-07T02:16:51.057Z,18.4
2023-02-07T02:17:58.402Z,18.7
2023-02-07T02:19:08.528Z,18.3
2023-02-07T02:20:18.654Z,18.6
2023-02-07T02:21:31.540Z,18.6
2023-02-07T02:22:38.892Z,18.9
2023-02-07T02:23:51.765Z,18.6
2023-02-07T02:24:59.123Z,18.4
2023-02-07T02:26:08.253Z,18.2
2023-02-07T02:27:18.374Z,18.2
2023-02-07T02:28:31.256Z,18.7
2023-02-07T02:29:41.374Z,18.2
2023-02-07T02:30:48.731Z,18
2023-02-07T02:31:58.859Z,18.7
2023-02-07T02:33:11.734Z,18.3
2023-02-07T02:34:21.495Z,18.4
2023-02-07T02:35:31.967Z,18.7
2023-02-07T02:36:42.096Z,18.2
2023-02-07T02:37:52.220Z,18.7
2023-02-07T02:38:59.581Z,18.7
2023-02-07T02:40:09.702Z,18
2023-02-07T02:41:18.825Z,18.7
2023-02-07T02:42:31.707Z,18
2023-02-07T02:43:41.482Z,18.1
2023-02-07T02:44:51.954Z,18.5
2023-02-07T02:45:59.306Z,18.2
2023-02-07T02:47:12.191Z,18.5
2023-02-07T02:48:22.311Z,18
2023-02-07T02:49:29.663Z,18
2023-02-07T02:51:49.897Z,18.5
2023-02-07T02:53:00.024Z,18
2023-02-07T02:54:12.892Z,18.5
2023-02-07T02:55:23.015Z,18.6
2023-02-07T02:56:29.388Z,18.1
2023-02-07T02:57:39.507Z,18.5
2023-02-07T02:58:52.386Z,18.2
2023-02-07T02:59:59.748Z,18.3
2023-02-07T03:01:12.633Z,18.5
2023-02-07T03:02:22.760Z,18.3
2023-02-07T03:03:32.867Z,18.2
2023-02-07T03:04:42.989Z,18
2023-02-07T03:05:52.743Z,18
2023-02-07T03:07:00.469Z,18.3
2023-02-07T03:08:13.343Z,18.5
2023-02-07T03:09:23.465Z,18.5
2023-02-07T03:10:30.817Z,18.6
2023-02-07T03:11:42.723Z,17.8
2023-02-07T03:12:52.840Z,18.5
2023-02-07T03:14:00.202Z,18.3
2023-02-07T03:15:13.081Z,18.2
2023-02-07T03:16:23.190Z,18
2023-02-07T03:17:33.317Z,18.1
2023-02-07T03:18:43.084Z,18.4
2023-02-07T03:19:53.550Z,18.5
2023-02-07T03:21:00.910Z,18.4
2023-02-07T03:22:13.798Z,18.5
2023-02-07T03:23:21.146Z,18
2023-02-07T03:24:34.037Z,18
2023-02-07T03:25:43.796Z,18.5
2023-02-07T03:26:50.515Z,18
2023-02-07T03:29:13.519Z,17.6
2023-02-07T03:30:23.278Z,18
2023-02-07T03:31:33.760Z,18
2023-02-07T03:32:41.127Z,18
2023-02-07T03:33:54.005Z,18.2
2023-02-07T03:35:01.353Z,18.7
2023-02-07T03:36:14.238Z,18.3
2023-02-07T03:37:24.358Z,18.3
2023-02-07T03:38:34.485Z,18.4
2023-02-07T03:39:44.600Z,18.5
2023-02-07T03:40:51.946Z,18
2023-02-07T03:42:01.087Z,17.9
2023-02-07T03:43:13.971Z,18.5
2023-02-07T03:44:23.726Z,17.7
2023-02-07T03:45:31.452Z,18
2023-02-07T03:46:41.558Z,18.4
2023-02-07T03:47:51.684Z,17.6
2023-02-07T03:49:00.817Z,18.5
2023-02-07T03:50:10.942Z,17.8
2023-02-07T03:51:23.466Z,17.7
2023-02-07T03:52:33.939Z,18
2023-02-07T03:53:44.064Z,17.7
2023-02-07T03:54:51.419Z,18.1
2023-02-07T03:56:01.546Z,17.7
2023-02-07T03:57:14.416Z,18
2023-02-07T03:58:21.771Z,18
2023-02-07T03:59:31.894Z,18
2023-02-07T04:01:54.897Z,17.6
2023-02-07T04:04:12.385Z,18.5
2023-02-07T04:05:24.282Z,18.1
2023-02-07T04:06:31.641Z,18
2023-02-07T04:07:44.520Z,17.9
2023-02-07T04:08:54.623Z,17.5
2023-02-07T04:10:01.995Z,18
2023-02-07T04:11:12.098Z,17.8
2023-02-07T04:12:24.627Z,18
2023-02-07T04:13:35.099Z,18.1
2023-02-07T04:14:42.459Z,18.1
2023-02-07T04:15:55.345Z,18
2023-02-07T04:17:02.712Z,18.1
2023-02-07T04:18:15.591Z,18.5
2023-02-07T04:19:25.338Z,18.6
2023-02-07T04:20:32.073Z,18.1
2023-02-07T04:21:44.961Z,18.5
2023-02-07T04:22:55.080Z,17.6
2023-02-07T04:25:15.311Z,18.5
2023-02-07T04:26:24.465Z,17.7
2023-02-07T04:27:33.589Z,18.4
2023-02-07T04:28:43.712Z,18.3
2023-02-07T04:29:53.836Z,18.1
2023-02-07T04:32:14.064Z,18.1
2023-02-07T04:33:24.186Z,18.1
2023-02-07T04:34:34.314Z,17.9
2023-02-07T04:35:44.421Z,17.9
2023-02-07T04:36:54.543Z,18.1
2023-02-07T04:39:14.785Z,17.7
2023-02-07T04:40:24.556Z,17.6
2023-02-07T04:41:34.061Z,18.4
2023-02-07T04:42:42.832Z,17.9
2023-02-07T04:43:53.313Z,18.1
2023-02-07T04:46:13.554Z,17.7
2023-02-07T04:47:23.294Z,18.4
2023-02-07T04:48:33.778Z,18.3
2023-02-07T04:49:43.913Z,18
2023-02-07T04:50:54.018Z,18.4
2023-02-07T04:53:14.269Z,18.2
2023-02-07T04:54:24.378Z,17.6
2023-02-07T04:55:34.504Z,17.9
2023-02-07T04:56:44.609Z,18
2023-02-07T04:57:53.754Z,18.1
2023-02-07T05:00:19.848Z,17.4
2023-02-07T05:01:24.110Z,17.6
2023-02-07T05:02:34.238Z,17.8
2023-02-07T05:03:43.979Z,17.6
2023-02-07T05:04:54.459Z,17.9
2023-02-07T05:07:14.713Z,17.6
2023-02-07T05:08:24.817Z,17.8
2023-02-07T05:09:34.938Z,17.9
2023-02-07T05:11:55.184Z,17.9
2023-02-07T05:13:04.320Z,18
2023-02-07T05:14:14.434Z,17.7
2023-02-07T05:15:24.186Z,18.1
2023-02-07T05:16:34.671Z,17.7
2023-02-07T05:17:44.796Z,17.7
2023-02-07T05:18:54.906Z,17.9
2023-02-07T05:20:05.033Z,17.7
2023-02-07T05:21:15.144Z,18.1
2023-02-07T05:22:25.266Z,17.4
2023-02-07T05:23:35.387Z,18.1
2023-02-07T05:24:45.153Z,17.7
2023-02-07T05:25:55.634Z,18.1
2023-02-07T05:27:05.743Z,17.7
2023-02-07T05:28:14.879Z,17.7
2023-02-07T05:29:25.011Z,17.6
2023-02-07T05:30:35.118Z,17.2
2023-02-07T05:31:44.261Z,17.9
2023-02-07T05:32:53.413Z,17.9
2023-02-07T05:34:03.515Z,18
2023-02-07T05:35:13.638Z,17.3
2023-02-07T05:36:23.758Z,17.2
2023-02-07T05:37:33.872Z,17.6
2023-02-07T05:39:54.118Z,17.9
2023-02-07T05:42:14.371Z,17.3
2023-02-07T05:43:24.489Z,17.9
2023-02-07T05:44:34.605Z,17.3
2023-02-07T05:45:44.344Z,17.5
2023-02-07T05:46:53.860Z,17.7
2023-02-07T05:48:02.997Z,17.4
2023-02-07T05:49:13.119Z,17.8
2023-02-07T05:50:23.228Z,17.9
2023-02-07T05:51:33.356Z,17.9
2023-02-07T05:52:43.105Z,17.9
2023-02-07T05:53:53.600Z,17.4
2023-02-07T05:55:03.706Z,17.4
2023-02-07T05:56:13.823Z,17.3
2023-02-07T05:57:23.958Z,17.4
2023-02-07T05:58:34.073Z,17.2
2023-02-07T05:59:43.215Z,17.7
2023-02-07T06:00:52.351Z,17.8
2023-02-07T06:02:02.463Z,17.4
2023-02-07T06:03:12.586Z,17.9
2023-02-07T06:04:22.722Z,17.4
2023-02-07T06:05:32.826Z,17.5
2023-02-07T06:07:53.077Z,17.1
2023-02-07T06:09:03.000Z,17.6
2023-02-07T06:10:13.314Z,17.8
2023-02-07T06:11:23.065Z,17.4
2023-02-07T06:12:33.542Z,17.7
2023-02-07T06:13:43.669Z,17.6
2023-02-07T06:14:53.797Z,17.9
2023-02-07T06:16:02.911Z,17.6
2023-02-07T06:17:13.044Z,17.4
2023-02-07T06:18:23.156Z,17.8
2023-02-07T06:19:33.273Z,17.6
2023-02-07T06:20:43.409Z,17.4
2023-02-07T06:21:53.526Z,17.4
2023-02-07T06:23:03.641Z,17.3
2023-02-07T06:24:13.767Z,17.3
2023-02-07T06:25:22.908Z,17.4
2023-02-07T06:26:32.041Z,17.8
2023-02-07T06:28:52.278Z,17.7
2023-02-07T06:30:02.394Z,17.5
2023-02-07T06:31:12.524Z,17.4
2023-02-07T06:32:22.624Z,17.7
2023-02-07T06:33:32.745Z,17.3
2023-02-07T06:35:52.987Z,17.8
2023-02-07T06:37:03.115Z,17.4
2023-02-07T06:38:13.230Z,16.9
2023-02-07T06:39:23.351Z,17.6
2023-02-07T06:40:32.494Z,17.3
2023-02-07T06:42:52.858Z,17.4
2023-02-07T06:44:02.966Z,17.7
2023-02-07T06:45:13.088Z,17.7
2023-02-07T06:46:23.213Z,17.3
2023-02-07T06:47:33.337Z,17.1
2023-02-07T06:48:43.459Z,17.3
2023-02-07T06:49:53.577Z,17.7
2023-02-07T06:51:03.693Z,17.7
2023-02-07T06:52:13.807Z,16.9
2023-02-07T06:53:22.969Z,17.3
2023-02-07T06:54:32.101Z,17.5
2023-02-07T06:55:42.218Z,17.8
2023-02-07T06:56:52.328Z,17.3
2023-02-07T06:58:02.451Z,17.1
2023-02-07T06:59:12.569Z,17.3
2023-02-07T07:00:22.693Z,17.3
2023-02-07T07:01:32.816Z,17.8
2023-02-07T07:02:42.939Z,17
2023-02-07T07:03:53.044Z,17.2
2023-02-07T07:06:13.286Z,17.2
2023-02-07T07:07:23.401Z,16.9
2023-02-07T07:08:33.523Z,17.2
2023-02-07T07:09:42.653Z,17.3
2023-02-07T07:10:52.776Z,17.4
2023-02-07T07:13:13.016Z,17.3
2023-02-07T07:14:22.172Z,17.3
2023-02-07T07:15:31.304Z,16.8
2023-02-07T07:16:41.409Z,17.2
2023-02-07T07:17:51.541Z,17.4
2023-02-07T07:19:01.663Z,17.4
2023-02-07T07:20:11.777Z,17
2023-02-07T07:21:21.900Z,16.9
2023-02-07T07:22:32.010Z,17.2
2023-02-07T07:24:52.248Z,17.3
2023-02-07T07:26:02.373Z,16.8
2023-02-07T07:27:12.497Z,17.3
2023-02-07T07:28:22.612Z,17.1
2023-02-07T07:29:32.727Z,16.8
2023-02-07T07:31:51.990Z,16.8
2023-02-07T07:33:01.133Z,16.8
2023-02-07T07:34:10.267Z,16.9
2023-02-07T07:35:20.389Z,17.1
2023-02-07T07:36:30.129Z,16.6
2023-02-07T07:37:40.250Z,16.9
2023-02-07T07:38:50.741Z,17.1
2023-02-07T07:41:10.986Z,17.3
2023-02-07T07:42:20.726Z,17.2
2023-02-07T07:43:30.246Z,17
2023-02-07T07:44:39.988Z,17.3
2023-02-07T07:45:50.470Z,17.4
2023-02-07T07:47:00.593Z,16.9
2023-02-07T07:48:10.349Z,16.9
2023-02-07T07:49:20.838Z,17.2
2023-02-07T07:50:30.970Z,17.1
2023-02-07T07:51:41.085Z,16.9
2023-02-07T07:52:51.190Z,17.4
2023-02-07T07:54:01.313Z,17.1
2023-02-07T07:55:11.430Z,17.1
2023-02-07T07:56:21.550Z,17.3
2023-02-07T07:57:31.672Z,17.3
2023-02-07T07:59:50.931Z,17.2
2023-02-07T08:01:00.065Z,17.2
2023-02-07T08:02:10.196Z,16.8
2023-02-07T08:03:20.319Z,16.6
2023-02-07T08:04:30.419Z,16.8
2023-02-07T08:06:49.685Z,16.9
2023-02-07T08:07:58.819Z,16.8
2023-02-07T08:09:08.943Z,16.8
2023-02-07T08:10:19.079Z,17.2
2023-02-07T08:11:29.183Z,17.4
2023-02-07T08:12:39.304Z,16.8
2023-02-07T08:13:49.424Z,17.3
2023-02-07T08:14:59.551Z,16.5
2023-02-07T08:16:09.657Z,17.2
2023-02-07T08:17:19.782Z,17.3
2023-02-07T08:18:29.901Z,16.9
2023-02-07T08:19:40.017Z,17
2023-02-07T08:20:50.140Z,17.2
2023-02-07T08:22:00.266Z,16.8
2023-02-07T08:23:09.400Z,17.3
2023-02-07T08:24:18.536Z,16.8
2023-02-07T08:25:27.669Z,17
2023-02-07T08:26:37.790Z,16.8
2023-02-07T08:27:47.929Z,17.3
2023-02-07T08:30:08.155Z,17.3
2023-02-07T08:31:18.278Z,17.4
2023-02-07T08:32:28.382Z,16.8
2023-02-07T08:33:38.509Z,16.9
2023-02-07T08:34:48.637Z,16.8
2023-02-07T08:35:58.759Z,17.4
2023-02-07T08:37:08.860Z,17.4
2023-02-07T08:38:18.995Z,16.9
2023-02-07T08:39:29.118Z,17.3
2023-02-07T08:40:38.238Z,17.3
2023-02-07T08:41:48.367Z,17.2
2023-02-07T08:42:58.490Z,17.2
2023-02-07T08:44:08.596Z,16.8
2023-02-07T08:45:18.717Z,16.8
2023-02-07T08:46:28.851Z,17.3
2023-02-07T08:48:49.072Z,17.4
2023-02-07T08:51:09.317Z,17.3
2023-02-07T08:52:18.453Z,17
2023-02-07T08:53:27.586Z,16.8
2023-02-07T08:55:47.829Z,17.1
2023-02-07T08:56:57.952Z,17.8
2023-02-07T08:58:08.073Z,16.8
2023-02-07T08:59:18.196Z,16.8
2023-02-07T09:00:28.315Z,17.3
2023-02-07T09:01:38.425Z,17.4
2023-02-07T09:02:48.553Z,17.4
2023-02-07T09:03:58.657Z,16.8
2023-02-07T09:05:08.788Z,17.1
2023-02-07T09:06:18.908Z,16.8
2023-02-07T09:07:29.023Z,16.8
2023-02-07T09:09:48.279Z,17.2
2023-02-07T09:10:58.397Z,17.3
2023-02-07T09:12:08.522Z,16.8
2023-02-07T09:13:18.637Z,17.1
2023-02-07T09:14:28.764Z,17.3
2023-02-07T09:15:38.880Z,16.9
2023-02-07T09:16:48.985Z,16.8
2023-02-07T09:17:59.116Z,16.9
2023-02-07T09:19:09.221Z,16.8
2023-02-07T09:20:18.374Z,17.4
2023-02-07T09:21:27.516Z,17.3
2023-02-07T09:22:37.622Z,17.2
2023-02-07T09:23:47.740Z,17.7
2023-02-07T09:26:07.986Z,16.8
2023-02-07T09:27:18.111Z,17.3
2023-02-07T09:28:28.239Z,17.4
2023-02-07T09:29:38.345Z,17.2
2023-02-07T09:30:48.464Z,17.4
2023-02-07T09:31:58.573Z,16.9
2023-02-07T09:33:08.699Z,17.4
2023-02-07T09:34:18.820Z,16.8
2023-02-07T09:35:28.939Z,17.4
2023-02-07T09:36:38.078Z,17.4
2023-02-07T09:37:48.198Z,17.6
2023-02-07T09:38:58.304Z,17.4
2023-02-07T09:40:08.424Z,17.2
2023-02-07T09:41:18.557Z,17.2
2023-02-07T09:42:28.660Z,17.6
2023-02-07T09:43:38.782Z,16.8
2023-02-07T09:44:48.909Z,16.9
2023-02-07T09:45:58.048Z,17.4
2023-02-07T09:47:07.199Z,17.4
2023-02-07T09:48:17.313Z,17.3
2023-02-07T09:49:27.430Z,17.2
2023-02-07T09:50:37.547Z,17.2
2023-02-07T09:51:47.670Z,17.2
2023-02-07T09:54:07.915Z,17.3
2023-02-07T09:55:18.018Z,17.2
2023-02-07T09:56:28.144Z,17.2
2023-02-07T09:57:38.265Z,17.8
2023-02-07T09:58:48.386Z,17.8
2023-02-07T09:59:58.506Z,17.7
2023-02-07T10:01:08.608Z,17.8
2023-02-07T10:02:17.750Z,17.2
2023-02-07T10:03:27.877Z,17.8
2023-02-07T10:05:48.106Z,17.6
2023-02-07T10:08:07.379Z,17.3
2023-02-07T10:09:16.510Z,17.4
2023-02-07T10:10:25.652Z,17.8
2023-02-07T10:11:35.768Z,17.2
2023-02-07T10:12:45.889Z,17.2
2023-02-07T10:15:06.135Z,17.6
2023-02-07T10:16:16.242Z,17.9
2023-02-07T10:17:26.370Z,17.2
2023-02-07T10:18:36.485Z,17.2
2023-02-07T10:19:46.611Z,17.3
2023-02-07T10:22:06.845Z,17.2
2023-02-07T10:23:16.964Z,17.9
2023-02-07T10:24:26.096Z,17.4
2023-02-07T10:25:35.236Z,17.4
2023-02-07T10:26:45.367Z,17.4
2023-02-07T10:29:05.590Z,17.5
2023-02-07T10:30:15.716Z,17.6
2023-02-07T10:31:25.835Z,17.7
2023-02-07T10:32:35.944Z,18
2023-02-07T10:33:46.078Z,17.4
2023-02-07T10:36:06.304Z,17.3
2023-02-07T10:37:16.430Z,17.2
2023-02-07T10:38:26.536Z,17.9
2023-02-07T10:39:36.656Z,17.5
2023-02-07T10:40:45.794Z,17.2
2023-02-07T10:41:55.831Z,17.6
2023-02-07T10:43:06.038Z,17.3
2023-02-07T10:44:16.066Z,17.7
2023-02-07T10:45:26.279Z,17.4
2023-02-07T10:46:36.384Z,17.4
2023-02-07T10:47:46.425Z,18
2023-02-07T10:48:56.625Z,17.7
2023-02-07T10:50:06.746Z,18.1
2023-02-07T10:51:16.776Z,17.4
2023-02-07T10:52:26.972Z,17.6
2023-02-07T10:53:37.092Z,17.8
2023-02-07T10:54:47.219Z,17.6
2023-02-07T10:55:56.273Z,17.4
2023-02-07T10:57:06.386Z,17.4
2023-02-07T10:58:15.621Z,18.1
2023-02-07T10:59:24.760Z,17.7
2023-02-07T11:00:34.868Z,17.7
2023-02-07T11:01:44.980Z,17.6
2023-02-07T11:04:05.234Z,17.4
2023-02-07T11:05:15.351Z,18
2023-02-07T11:06:25.455Z,17.6
2023-02-07T11:07:35.575Z,17.9
2023-02-07T11:08:45.698Z,17.6
2023-02-07T11:11:05.936Z,17.7
2023-02-07T11:12:16.061Z,17.5
2023-02-07T11:13:25.198Z,18.1
2023-02-07T11:14:34.332Z,17.9
2023-02-07T11:15:44.462Z,18.1
2023-02-07T11:19:22.700Z,18.1
2023-02-07T11:20:24.919Z,18.1
2023-02-07T11:21:35.038Z,17.6
2023-02-07T11:22:45.146Z,17.6
2023-02-07T11:25:05.386Z,17.4
2023-02-07T11:26:15.506Z,17.9
2023-02-07T11:27:25.639Z,18.6
2023-02-07T11:28:35.752Z,18.2
2023-02-07T11:29:44.880Z,17.6
2023-02-07T11:32:05.121Z,18.1
2023-02-07T11:33:15.245Z,18.1
2023-02-07T11:34:25.351Z,17.9
2023-02-07T11:35:35.475Z,17.6
2023-02-07T11:36:45.586Z,18.1
2023-02-07T11:39:05.951Z,18
2023-02-07T11:40:15.088Z,18.3
2023-02-07T11:41:25.209Z,17.6
2023-02-07T11:42:35.334Z,17.9
2023-02-07T11:43:45.455Z,18.5
2023-02-07T11:46:05.679Z,18
2023-02-07T11:47:15.799Z,18.5
2023-02-07T11:48:25.920Z,17.9
2023-02-07T11:49:36.037Z,17.9
2023-02-07T11:50:45.781Z,17.6
2023-02-07T11:51:55.899Z,18
2023-02-07T11:53:06.017Z,18
2023-02-07T11:54:16.132Z,17.9
2023-02-07T11:55:25.287Z,18
2023-02-07T11:56:35.765Z,18.2
2023-02-07T11:57:46.150Z,17.6
2023-02-07T11:58:55.647Z,18.1
2023-02-07T12:00:06.115Z,18.2
2023-02-07T12:01:15.857Z,18.9
2023-02-07T12:02:26.353Z,18.1
2023-02-07T12:03:35.515Z,18
2023-02-07T12:04:44.261Z,17.9
2023-02-07T12:05:54.402Z,18
2023-02-07T12:07:04.876Z,17.6
2023-02-07T12:08:14.614Z,18.2
2023-02-07T12:10:35.229Z,18.6
2023-02-07T12:11:45.357Z,18.6
2023-02-07T12:14:05.202Z,18.4
2023-02-07T12:15:15.318Z,18.1
2023-02-07T12:16:25.438Z,17.6
2023-02-07T12:17:35.932Z,18.1
2023-02-07T12:18:45.083Z,18.1
2023-02-07T12:21:04.341Z,18.5
2023-02-07T12:22:14.463Z,17.9
2023-02-07T12:23:24.568Z,18.1
2023-02-07T12:24:34.694Z,18.6
2023-02-07T12:25:44.437Z,18
2023-02-07T12:28:05.049Z,18.5
2023-02-07T12:29:15.177Z,18.6
2023-02-07T12:30:24.901Z,17.6
2023-02-07T12:31:35.016Z,18.2
2023-02-07T12:32:45.525Z,18.6
2023-02-07T12:35:05.764Z,18
2023-02-07T12:36:14.891Z,18.1
2023-02-07T12:37:24.638Z,18.1
2023-02-07T12:38:34.752Z,18
2023-02-07T12:39:45.241Z,18.5
2023-02-07T12:42:05.482Z,18.4
2023-02-07T12:43:15.607Z,18
2023-02-07T12:46:45.961Z,18.6
2023-02-07T12:47:55.696Z,17.9
2023-02-07T12:49:05.806Z,17.9
2023-02-07T12:50:15.926Z,18.2
2023-02-07T12:51:25.066Z,18.6
2023-02-07T12:52:35.184Z,18.2
2023-02-07T12:53:45.691Z,18.4
2023-02-07T12:54:55.815Z,18.3
2023-02-07T12:56:05.923Z,18
2023-02-07T12:57:16.042Z,18.1
2023-02-07T12:58:26.164Z,18.1
2023-02-07T12:59:36.287Z,18.3
2023-02-07T13:00:46.143Z,18.7
2023-02-07T13:03:06.243Z,18.4
2023-02-07T13:04:16.745Z,18.3
2023-02-07T13:05:26.870Z,18
2023-02-07T13:07:46.124Z,18.5
2023-02-07T13:08:55.996Z,18.3
2023-02-07T13:10:06.101Z,18.2
2023-02-07T13:11:16.219Z,18.7
2023-02-07T13:12:26.336Z,18.1
2023-02-07T13:13:36.716Z,18.8
2023-02-07T13:14:46.440Z,18.1
2023-02-07T13:15:56.701Z,18.5
2023-02-07T13:17:06.813Z,18.7
2023-02-07T13:18:17.184Z,18.9
2023-02-07T13:19:27.305Z,18.7
2023-02-07T13:20:37.427Z,18.1
2023-02-07T13:21:46.561Z,18.8
2023-02-07T13:22:56.421Z,18.5
2023-02-07T13:24:06.793Z,18.2
2023-02-07T13:25:16.912Z,18.5
2023-02-07T13:26:26.652Z,18.7
2023-02-07T13:27:35.792Z,18.1
2023-02-07T13:28:45.305Z,17.9
2023-02-07T13:29:55.187Z,18
2023-02-07T13:31:05.290Z,18.7
2023-02-07T13:32:15.278Z,18.5
2023-02-07T13:33:25.536Z,18.7
2023-02-07T13:34:35.528Z,18.1
2023-02-07T13:35:45.628Z,18.5
2023-02-07T13:36:55.884Z,18.1
2023-02-07T13:38:05.867Z,18.6
2023-02-07T13:39:16.368Z,18.6
2023-02-07T13:40:25.265Z,18.1
2023-02-07T13:41:34.649Z,18.3
2023-02-07T13:42:44.771Z,17.9
2023-02-07T13:45:05.005Z,18.5
2023-02-07T13:46:14.744Z,18.2
2023-02-07T13:47:25.000Z,18.7
2023-02-07T13:49:45.484Z,18.3
2023-02-07T13:50:55.352Z,18.5
2023-02-07T13:52:05.728Z,18.4
2023-02-07T13:53:15.833Z,18.4
2023-02-07T13:54:25.960Z,18.5
2023-02-07T13:55:35.111Z,18.8
2023-02-07T13:56:44.241Z,18.1
2023-02-07T13:59:04.473Z,18.6
2023-02-07T14:00:14.591Z,18.3
2023-02-07T14:01:24.718Z,18.6
2023-02-07T14:02:34.836Z,18.5
2023-02-07T14:03:44.942Z,18
2023-02-07T14:06:05.190Z,18.2
2023-02-07T14:07:14.913Z,18
2023-02-07T14:08:25.418Z,18.2
2023-02-07T14:09:35.540Z,18
2023-02-07T14:10:44.683Z,18.5
2023-02-07T14:11:53.674Z,18.8
2023-02-07T14:13:03.936Z,18.8
2023-02-07T14:14:13.663Z,18.3
2023-02-07T14:15:24.167Z,18.7
2023-02-07T14:16:34.292Z,18.1
2023-02-07T14:17:44.411Z,18.6
2023-02-07T14:18:54.499Z,18.7
2023-02-07T14:20:04.744Z,18.2
2023-02-07T14:21:14.369Z,17.9
2023-02-07T14:22:24.887Z,18.6
2023-02-07T14:23:33.644Z,18.4
2023-02-07T14:24:42.782Z,18.1
2023-02-07T14:27:03.378Z,18.2
2023-02-07T14:28:13.510Z,18.7
2023-02-07T14:29:23.632Z,17.9
2023-02-07T14:30:33.765Z,18.7
2023-02-07T14:31:43.878Z,18.5
2023-02-07T14:34:04.111Z,17.9
2023-02-07T14:35:13.848Z,18.1
2023-02-07T14:36:24.344Z,18.6
2023-02-07T14:37:34.471Z,18.8
2023-02-07T14:38:43.609Z,18.8
2023-02-07T14:39:52.748Z,18.6
2023-02-07T14:41:02.869Z,18.1
2023-02-07T14:42:12.973Z,18.1
2023-02-07T14:43:23.099Z,18
2023-02-07T14:44:33.219Z,18.1
2023-02-07T14:45:43.341Z,18.5
2023-02-07T14:48:03.565Z,18
2023-02-07T14:49:13.687Z,18.5
2023-02-07T14:51:33.922Z,17.9
2023-02-07T14:52:44.040Z,18.6
2023-02-07T14:55:04.284Z,18.5
2023-02-07T14:56:13.019Z,18.7
2023-02-07T14:58:33.646Z,18.5
2023-02-07T14:59:43.766Z,18
2023-02-07T15:02:04.017Z,18.5
2023-02-07T15:03:14.127Z,18.7
2023-02-07T15:09:04.708Z,18.1
2023-02-07T15:10:14.834Z,18.5
2023-02-07T15:11:24.570Z,18
2023-02-07T15:12:34.686Z,18.2
2023-02-07T15:13:44.204Z,18.5
2023-02-07T15:14:54.434Z,18.4
2023-02-07T15:16:12.459Z,18.3
2023-02-07T15:17:14.709Z,18.5
2023-02-07T15:18:24.906Z,18.3
2023-02-07T15:20:45.257Z,18.1
2023-02-07T15:21:55.390Z,18.6
2023-02-07T15:23:05.155Z,18.1
2023-02-07T15:24:15.653Z,18.7
2023-02-07T15:25:25.390Z,18.2
2023-02-07T15:26:35.515Z,18.6
2023-02-07T15:27:45.626Z,18.1
2023-02-07T15:28:55.190Z,18.2
2023-02-07T15:30:05.319Z,18.6
2023-02-07T15:32:25.589Z,18.5
2023-02-07T15:35:55.990Z,18.2
2023-02-07T15:37:06.109Z,18.2
2023-02-07T15:38:15.724Z,18
2023-02-07T15:39:24.853Z,18.7
2023-02-07T15:40:34.977Z,18.5
2023-02-07T15:41:45.088Z,18.7
2023-02-07T15:42:55.216Z,18.1
2023-02-07T15:44:05.890Z,18.8
2023-02-07T15:45:15.049Z,18.5
2023-02-07T15:46:25.168Z,18.7
2023-02-07T15:47:35.289Z,18.5
2023-02-07T15:48:46.390Z,18.6
2023-02-07T15:49:55.919Z,18.4
2023-02-07T15:51:06.643Z,18.4
2023-02-07T15:52:16.782Z,18.7
2023-02-07T15:53:26.274Z,18.5
2023-02-07T15:54:35.405Z,18.7
2023-02-07T15:55:45.528Z,18.5
2023-02-07T15:58:06.423Z,18.7
2023-02-07T15:59:15.484Z,18.4
2023-02-07T16:00:25.670Z,18.4
2023-02-07T16:01:34.176Z,18.6
2023-02-07T16:02:44.283Z,18.5
2023-02-07T16:03:54.407Z,18.6
2023-02-07T16:05:04.526Z,18.6
2023-02-07T16:06:15.247Z,18.5
2023-02-07T16:07:24.764Z,18.4
2023-02-07T16:08:35.474Z,18.6
2023-02-07T16:09:45.012Z,18.6
2023-02-07T16:10:55.711Z,18.3
2023-02-07T16:12:05.234Z,18.6
2023-02-07T16:13:14.384Z,18.3
2023-02-07T16:14:24.114Z,18.5
2023-02-07T16:15:33.631Z,18.6
2023-02-07T16:16:43.757Z,18.3
2023-02-07T16:19:04.005Z,18.4
2023-02-07T16:20:13.712Z,18
2023-02-07T16:21:24.233Z,18.1
2023-02-07T16:22:34.927Z,18.1
2023-02-07T16:23:44.466Z,18.9
2023-02-07T16:24:55.172Z,18.2
2023-02-07T16:26:05.292Z,18
2023-02-07T16:27:15.399Z,18.7
2023-02-07T16:28:24.941Z,18.6
2023-02-07T16:30:44.203Z,18.5
2023-02-07T16:31:53.931Z,18.6
2023-02-07T16:33:02.495Z,18.4
2023-02-07T16:34:12.215Z,18.5
2023-02-07T16:35:22.715Z,19.1
2023-02-07T16:36:32.847Z,18.1
2023-02-07T16:37:42.964Z,19.1
2023-02-07T16:38:53.650Z,18.1
2023-02-07T16:40:03.779Z,18.4
2023-02-07T16:41:13.901Z,18.4
2023-02-07T16:42:24.013Z,18.2
2023-02-07T16:44:43.274Z,17.9
2023-02-07T16:47:04.484Z,17.9
2023-02-07T16:48:13.054Z,18.1
2023-02-07T16:49:22.761Z,18.2
2023-02-07T16:50:32.895Z,18.5
2023-02-07T16:51:42.435Z,18.1
2023-02-07T16:52:53.122Z,18.5
2023-02-07T16:54:03.249Z,17.9
2023-02-07T16:55:12.394Z,18.2
2023-02-07T16:56:22.904Z,18.5
2023-02-07T16:57:33.032Z,18.1
2023-02-07T16:58:43.721Z,17.6
2023-02-07T16:59:53.845Z,18.1
2023-02-07T17:01:02.982Z,18.7
2023-02-07T17:02:12.118Z,18.7
2023-02-07T17:03:22.242Z,18.1
2023-02-07T17:04:31.783Z,18.5
2023-02-07T17:05:42.470Z,18
2023-02-07T17:06:52.589Z,18.2
2023-02-07T17:08:02.140Z,18.1
2023-02-07T17:09:12.255Z,18.1
2023-02-07T17:10:22.379Z,18.1
2023-02-07T17:11:32.500Z,18.4
2023-02-07T17:12:42.616Z,18.3
2023-02-07T17:13:51.000Z,18
2023-02-07T17:15:00.897Z,18
2023-02-07T17:16:11.590Z,18
2023-02-07T17:17:21.150Z,18.5